ChinaFixed distance
GZ100 Guangzhou - 60 Km Run
11 Jan2025
Distance
64km
Finishers
794592 men202 women
Winning time
6:32:34h
Median pace
4.77km/h
Pace distribution
794 finishers · 3.37–9.78 km/h · mean 4.96
Every finisher ran the same 64 km course, so these paces are directly comparable.
Histogram of finisher pace. 794 finishers ranged from 3.37 to 9.78 kilometres per hour, with a mean of 4.96 and a median of 4.77. The busiest band is 4.0 to 4.5 kilometres per hour, with 179 finishers.
Results
Ranks 651–700 of 794
| Rank | Runner | Time | Pace | Cat. | Placing |
|---|---|---|---|---|---|
| 652 | Cen, Shao-BoChinaWoman | 15:53:17h | 4.03 | W50 | 158th F · 12th W50 |
| 652 | Tian, YiChinaWoman | 15:53:17h | 4.03 | W35 | 158th F · 34th W35 |
| 654 | Hu, Shan-TongChinaMan | 15:53:31h | 4.03 | M60 | 494th M · 5th M60 |
| 655 | Jian, Wei-HaoChinaMan | 15:53:35h | 4.03 | M45 | 495th M · 83rd M45 |
| 656 | Guo, LeiChinaMan | 15:53:43h | 4.03 | M40 | 496th M · 95th M40 |
| 657 | Wu, Li-JingChinaWoman | 15:54:45h | 4.02 | W23 | 160th F · 45th W23 |
| 658 | Cheng, Jian-TingChinaMan | 15:55:30h | 4.02 | M40 | 497th M · 96th M40 |
| 659 | Chen, Cheng-JiangChinaMan | 15:56:01h | 4.02 | M35 | 498th M · 110th M35 |
| 660 | Huang, Yao-WeiChinaMan | 15:56:15h | 4.02 | M35 | 499th M · 111th M35 |
| 661 | Wang, You-FuChinaWoman | 15:56:16h | 4.02 | W40 | 161st F · 36th W40 |
| 662 | Qian, Bin-FengChinaMan | 15:56:19h | 4.01 | M45 | 500th M · 84th M45 |
| 663 | Liu, BoChinaMan | 15:59:02h | 4.00 | M35 | 501st M · 112th M35 |
| 664 | Huang, Bao-XuanChinaMan | 16:01:03h | 4.00 | M45 | 502nd M · 85th M45 |
| 665 | Zhao, Wei-MengChinaMan | 16:05:47h | 3.98 | M23 | 503rd M · 126th M23 |
| 666 | Ma, Rui-PingChinaWoman | 16:06:14h | 3.97 | W40 | 162nd F · 37th W40 |
| 667 | Chen, Jin-DaiChinaWoman | 16:07:26h | 3.97 | W45 | 163rd F · 30th W45 |
| 668 | Shen, Yi-LanChinaWoman | 16:07:40h | 3.97 | W40 | 164th F · 38th W40 |
| 668 | Wu, Min-SongChinaMan | 16:07:40h | 3.97 | M45 | 504th M · 86th M45 |
| 670 | Guo, ZhuChinaMan | 16:07:43h | 3.97 | M50 | 505th M · 54th M50 |
| 671 | Liang, Yuan-HongChinaMan | 16:09:06h | 3.96 | M45 | 506th M · 87th M45 |
| 672 | Lai, Pei-LinChinaWoman | 16:09:39h | 3.96 | W40 | 165th F · 39th W40 |
| 673 | Liu, Qi-LongChinaMan | 16:10:34h | 3.96 | M35 | 507th M · 113th M35 |
| 674 | Xiang, Feng-RuiChinaMan | 16:10:47h | 3.96 | M35 | 508th M · 114th M35 |
| 675 | Xiao, QianChinaWoman | 16:10:50h | 3.96 | W50 | 166th F · 13th W50 |
| 676 | Cheng, Yan-ShuangChinaWoman | 16:13:00h | 3.95 | W40 | 167th F · 40th W40 |
| 677 | Han, Ji-ShanChinaMan | 16:13:37h | 3.94 | M40 | 509th M · 97th M40 |
| 678 | Weng, Mei-YingChinaWoman | 16:15:04h | 3.94 | W35 | 168th F · 35th W35 |
| 679 | Yi, Jian-CongChinaMan | 16:16:47h | 3.93 | M23 | 510th M · 127th M23 |
| 680 | Ding, Yi-FanChinaMan | 16:17:27h | 3.93 | M23 | 511th M · 128th M23 |
| 681 | Jia, MinChinaWoman | 16:17:46h | 3.93 | W50 | 169th F · 14th W50 |
| 682 | Wei, Wen-JingChinaWoman | 16:19:00h | 3.92 | W40 | 170th F · 41st W40 |
| 683 | Chen, Jian-HuaChinaWoman | 16:20:41h | 3.92 | W50 | 171st F · 15th W50 |
| 684 | Liu, Mei-LingChinaWoman | 16:20:43h | 3.92 | W23 | 172nd F · 46th W23 |
| 685 | Jin, Ying-HongChinaWoman | 16:20:53h | 3.92 | W45 | 173rd F · 31st W45 |
| 686 | Liu, Jia-JieChinaMan | 16:21:00h | 3.91 | M23 | 512th M · 129th M23 |
| 687 | Xue, Jia-XinChinaMan | 16:21:02h | 3.91 | MU23 | 513th M · 2nd MU23 |
| 688 | Feng, Chuan-ZeChinaMan | 16:21:08h | 3.91 | M35 | 514th M · 115th M35 |
| 689 | Wang, Jia-YiChinaWoman | 16:21:10h | 3.91 | W23 | 174th F · 47th W23 |
| 690 | Xie, Shi-XiongChinaMan | 16:23:14h | 3.90 | M55 | 515th M · 26th M55 |
| 691 | Xu, Kun-YiChinaMan | 16:23:57h | 3.90 | M23 | 516th M · 130th M23 |
| 692 | Ye, Wei-FengChinaMan | 16:24:33h | 3.90 | M35 | 517th M · 116th M35 |
| 693 | Bai, Xing-PengChinaMan | 16:25:07h | 3.90 | M40 | 518th M · 98th M40 |
| 694 | Jiang, Jia-HuiChinaMan | 16:26:07h | 3.89 | M40 | 519th M · 99th M40 |
| 695 | Li, Ling-FengChinaMan | 16:28:14h | 3.89 | M40 | 520th M · 100th M40 |
| 696 | Song, Jia-ZhuChinaMan | 16:29:49h | 3.88 | M35 | 521st M · 117th M35 |
| 697 | Jiang, Guang-ZhongChinaMan | 16:30:06h | 3.88 | M40 | 522nd M · 101st M40 |
| 698 | Kong, LuChinaWoman | 16:31:30h | 3.87 | W35 | 175th F · 36th W35 |
| 699 | Fang, LongChinaMan | 16:33:57h | 3.86 | M35 | 523rd M · 118th M35 |
| 700 | Zhang, YanChinaMan | 16:36:04h | 3.85 | M45 | 524th M · 88th M45 |
| 701 | Lyu, Ruan-HuiChinaMan | 16:37:11h | 3.85 | M35 | 525th M · 119th M35 |
- 652Cen, Shao-BoChinaWoman158th F · 12th W50Time15:53:17hPace4.03Cat.W50
- 652Tian, YiChinaWoman158th F · 34th W35Time15:53:17hPace4.03Cat.W35
- 654Hu, Shan-TongChinaMan494th M · 5th M60Time15:53:31hPace4.03Cat.M60
- 655Jian, Wei-HaoChinaMan495th M · 83rd M45Time15:53:35hPace4.03Cat.M45
- 656Guo, LeiChinaMan496th M · 95th M40Time15:53:43hPace4.03Cat.M40
- 657Wu, Li-JingChinaWoman160th F · 45th W23Time15:54:45hPace4.02Cat.W23
- 658Cheng, Jian-TingChinaMan497th M · 96th M40Time15:55:30hPace4.02Cat.M40
- 659Chen, Cheng-JiangChinaMan498th M · 110th M35Time15:56:01hPace4.02Cat.M35
- 660Huang, Yao-WeiChinaMan499th M · 111th M35Time15:56:15hPace4.02Cat.M35
- 661Wang, You-FuChinaWoman161st F · 36th W40Time15:56:16hPace4.02Cat.W40
- 662Qian, Bin-FengChinaMan500th M · 84th M45Time15:56:19hPace4.01Cat.M45
- 663Liu, BoChinaMan501st M · 112th M35Time15:59:02hPace4.00Cat.M35
- 664Huang, Bao-XuanChinaMan502nd M · 85th M45Time16:01:03hPace4.00Cat.M45
- 665Zhao, Wei-MengChinaMan503rd M · 126th M23Time16:05:47hPace3.98Cat.M23
- 666Ma, Rui-PingChinaWoman162nd F · 37th W40Time16:06:14hPace3.97Cat.W40
- 667Chen, Jin-DaiChinaWoman163rd F · 30th W45Time16:07:26hPace3.97Cat.W45
- 668Shen, Yi-LanChinaWoman164th F · 38th W40Time16:07:40hPace3.97Cat.W40
- 668Wu, Min-SongChinaMan504th M · 86th M45Time16:07:40hPace3.97Cat.M45
- 670Guo, ZhuChinaMan505th M · 54th M50Time16:07:43hPace3.97Cat.M50
- 671Liang, Yuan-HongChinaMan506th M · 87th M45Time16:09:06hPace3.96Cat.M45
- 672Lai, Pei-LinChinaWoman165th F · 39th W40Time16:09:39hPace3.96Cat.W40
- 673Liu, Qi-LongChinaMan507th M · 113th M35Time16:10:34hPace3.96Cat.M35
- 674Xiang, Feng-RuiChinaMan508th M · 114th M35Time16:10:47hPace3.96Cat.M35
- 675Xiao, QianChinaWoman166th F · 13th W50Time16:10:50hPace3.96Cat.W50
- 676Cheng, Yan-ShuangChinaWoman167th F · 40th W40Time16:13:00hPace3.95Cat.W40
- 677Han, Ji-ShanChinaMan509th M · 97th M40Time16:13:37hPace3.94Cat.M40
- 678Weng, Mei-YingChinaWoman168th F · 35th W35Time16:15:04hPace3.94Cat.W35
- 679Yi, Jian-CongChinaMan510th M · 127th M23Time16:16:47hPace3.93Cat.M23
- 680Ding, Yi-FanChinaMan511th M · 128th M23Time16:17:27hPace3.93Cat.M23
- 681Jia, MinChinaWoman169th F · 14th W50Time16:17:46hPace3.93Cat.W50
- 682Wei, Wen-JingChinaWoman170th F · 41st W40Time16:19:00hPace3.92Cat.W40
- 683Chen, Jian-HuaChinaWoman171st F · 15th W50Time16:20:41hPace3.92Cat.W50
- 684Liu, Mei-LingChinaWoman172nd F · 46th W23Time16:20:43hPace3.92Cat.W23
- 685Jin, Ying-HongChinaWoman173rd F · 31st W45Time16:20:53hPace3.92Cat.W45
- 686Liu, Jia-JieChinaMan512th M · 129th M23Time16:21:00hPace3.91Cat.M23
- 687Xue, Jia-XinChinaMan513th M · 2nd MU23Time16:21:02hPace3.91Cat.MU23
- 688Feng, Chuan-ZeChinaMan514th M · 115th M35Time16:21:08hPace3.91Cat.M35
- 689Wang, Jia-YiChinaWoman174th F · 47th W23Time16:21:10hPace3.91Cat.W23
- 690Xie, Shi-XiongChinaMan515th M · 26th M55Time16:23:14hPace3.90Cat.M55
- 691Xu, Kun-YiChinaMan516th M · 130th M23Time16:23:57hPace3.90Cat.M23
- 692Ye, Wei-FengChinaMan517th M · 116th M35Time16:24:33hPace3.90Cat.M35
- 693Bai, Xing-PengChinaMan518th M · 98th M40Time16:25:07hPace3.90Cat.M40
- 694Jiang, Jia-HuiChinaMan519th M · 99th M40Time16:26:07hPace3.89Cat.M40
- 695Li, Ling-FengChinaMan520th M · 100th M40Time16:28:14hPace3.89Cat.M40
- 696Song, Jia-ZhuChinaMan521st M · 117th M35Time16:29:49hPace3.88Cat.M35
- 697Jiang, Guang-ZhongChinaMan522nd M · 101st M40Time16:30:06hPace3.88Cat.M40
- 698Kong, LuChinaWoman175th F · 36th W35Time16:31:30hPace3.87Cat.W35
- 699Fang, LongChinaMan523rd M · 118th M35Time16:33:57hPace3.86Cat.M35
- 700Zhang, YanChinaMan524th M · 88th M45Time16:36:04hPace3.85Cat.M45
- 701Lyu, Ruan-HuiChinaMan525th M · 119th M35Time16:37:11hPace3.85Cat.M35
Showing ranks 651–700 of 794